Time;durP1;ratioP1;P1;durP2;ratioP2;P2;SDS_P1;SDS_P2;PMS_P1;PMS_P2;Temp;Humidity;BMP_temperature;BMP_pressure;BME280_temperature;BME280_humidity;BME280_pressure;Samples;Min_cycle;Max_cycle;Signal;HPM_P1;HPM_P2
2023/05/18 00:01:18;;;;;;;;;4.00;4.00;;;;;;;;2;216064452;216064452;-89
2023/05/18 00:09:34;;;;;;;;;1.50;1.50;;;;;;;;2;261074929;261074929;-89
2023/05/18 00:17:52;;;;;;;;;4.50;4.50;;;;;;;;2;216062976;216062976;-88
2023/05/18 00:26:07;;;;;;;;;0.50;0.50;;;;;;;;2;261076834;261076834;-89
2023/05/18 00:34:22;;;;;;;;;2.50;2.50;;;;;;;;2;216066323;216066323;-89
2023/05/18 00:42:38;;;;;;;;;3.50;3.50;;;;;;;;2;261079384;261079384;-88
2023/05/18 00:50:53;;;;;;;;;2.00;2.00;;;;;;;;2;216062647;216062647;-88
2023/05/18 00:59:10;;;;;;;;;1.00;1.00;;;;;;;;2;261078015;261078015;-88
2023/05/18 01:07:25;;;;;;;;;3.00;3.00;;;;;;;;2;216064933;216064933;-88
2023/05/18 01:15:43;;;;;;;;;3.50;3.50;;;;;;;;2;261076291;261076291;-88
2023/05/18 01:24:17;;;;;;;;;0.00;0.00;;;;;;;;2;216066382;216066382;-89
2023/05/18 01:32:41;;;;;;;;;2.50;2.50;;;;;;;;2;261079294;261079294;-88
2023/05/18 01:41:05;;;;;;;;;2.50;2.50;;;;;;;;2;216066651;216066651;-88
2023/05/18 01:49:38;;;;;;;;;4.00;4.00;;;;;;;;2;261076497;261076497;-88
2023/05/18 01:57:53;;;;;;;;;2.00;2.00;;;;;;;;2;216066419;216066419;-88
2023/05/18 02:06:08;;;;;;;;;2.50;2.50;;;;;;;;2;261080491;261080491;-88
2023/05/18 02:14:24;;;;;;;;;3.50;3.50;;;;;;;;2;216066475;216066475;-88
2023/05/18 02:22:40;;;;;;;;;3.00;3.00;;;;;;;;2;261082020;261082020;-88
2023/05/18 02:31:03;;;;;;;;;2.00;2.00;;;;;;;;2;216068489;216068489;-88
2023/05/18 02:39:18;;;;;;;;;4.00;4.00;;;;;;;;2;261077529;261077529;-88
2023/05/18 02:47:34;;;;;;;;;1.50;1.50;;;;;;;;2;216064406;216064406;-88
2023/05/18 02:55:55;;;;;;;;;4.00;4.00;;;;;;;;2;261078024;261078024;-88
2023/05/18 03:04:12;;;;;;;;;5.00;5.00;;;;;;;;2;216067593;216067593;-88
2023/05/18 03:12:28;;;;;;;;;6.00;6.00;;;;;;;;2;261079469;261079469;-88
2023/05/18 03:20:43;;;;;;;;;8.50;5.50;;;;;;;;2;216062411;216062411;-88
2023/05/18 03:29:00;;;;;;;;;2.50;2.50;;;;;;;;2;261081584;261081584;-88
2023/05/18 03:37:16;;;;;;;;;4.50;4.50;;;;;;;;2;216064841;216064841;-88
2023/05/18 03:45:31;;;;;;;;;6.00;6.00;;;;;;;;2;261078925;261078925;-88
2023/05/18 03:53:47;;;;;;;;;3.50;3.50;;;;;;;;2;216070270;216070270;-88
2023/05/18 04:02:02;;;;;;;;;9.50;9.50;;;;;;;;2;261078875;261078875;-88
2023/05/18 04:10:18;;;;;;;;;6.00;6.00;;;;;;;;2;216063909;216063909;-88
2023/05/18 04:18:35;;;;;;;;;7.00;7.00;;;;;;;;2;261077545;261077545;-88
2023/05/18 04:26:52;;;;;;;;;7.00;7.00;;;;;;;;2;216064262;216064262;-88
2023/05/18 04:35:09;;;;;;;;;14.00;10.50;;;;;;;;2;261080366;261080366;-88
2023/05/18 04:43:25;;;;;;;;;8.00;8.00;;;;;;;;2;216066966;216066966;-88
2023/05/18 04:51:40;;;;;;;;;8.00;8.00;;;;;;;;2;261079531;261079531;-88
2023/05/18 04:59:57;;;;;;;;;8.50;8.50;;;;;;;;2;216068433;216068433;-88
2023/05/18 05:08:12;;;;;;;;;7.50;7.50;;;;;;;;2;261078513;261078513;-88
2023/05/18 05:16:27;;;;;;;;;10.00;10.00;;;;;;;;2;216064336;216064336;-89
2023/05/18 05:24:43;;;;;;;;;10.50;10.50;;;;;;;;2;261081716;261081716;-88
2023/05/18 05:32:58;;;;;;;;;14.00;14.00;;;;;;;;2;216066174;216066174;-88
2023/05/18 05:41:14;;;;;;;;;9.50;9.50;;;;;;;;2;261078588;261078588;-89
2023/05/18 05:49:29;;;;;;;;;8.00;8.00;;;;;;;;2;216064667;216064667;-88
2023/05/18 05:57:45;;;;;;;;;9.00;9.00;;;;;;;;2;261081108;261081108;-88
2023/05/18 06:06:00;;;;;;;;;7.50;7.50;;;;;;;;2;216073642;216073642;-88
2023/05/18 06:14:15;;;;;;;;;3.00;3.00;;;;;;;;2;261080900;261080900;-88
2023/05/18 06:22:31;;;;;;;;;4.50;4.50;;;;;;;;2;216066505;216066505;-88
2023/05/18 06:30:47;;;;;;;;;8.00;8.00;;;;;;;;2;261081193;261081193;-89
2023/05/18 06:39:03;;;;;;;;;10.00;10.00;;;;;;;;2;216067596;216067596;-88
2023/05/18 06:47:19;;;;;;;;;10.00;10.00;;;;;;;;2;261083083;261083083;-88
2023/05/18 06:55:34;;;;;;;;;10.50;7.50;;;;;;;;2;216064661;216064661;-88
2023/05/18 07:03:50;;;;;;;;;6.50;6.50;;;;;;;;2;261076645;261076645;-89
2023/05/18 07:21:26;;;;;;;;;7.50;7.50;;;;;;;;2;261081864;261081864;-92
2023/05/18 07:29:42;;;;;;;;;5.50;5.50;;;;;;;;2;216067810;216067810;-91
2023/05/18 07:38:00;;;;;;;;;6.50;6.50;;;;;;;;2;261080244;261080244;-91
2023/05/18 07:46:16;;;;;;;;;4.50;4.50;;;;;;;;2;216067967;216067967;-90
2023/05/18 07:54:31;;;;;;;;;4.50;4.50;;;;;;;;2;261079205;261079205;-90
2023/05/18 08:02:47;;;;;;;;;7.00;7.00;;;;;;;;2;216064458;216064458;-90
2023/05/18 08:11:03;;;;;;;;;3.00;3.00;;;;;;;;2;261077219;261077219;-90
2023/05/18 08:19:19;;;;;;;;;1.00;1.00;;;;;;;;2;216067450;216067450;-90
2023/05/18 08:27:34;;;;;;;;;2.50;2.50;;;;;;;;2;261083686;261083686;-91
2023/05/18 08:35:52;;;;;;;;;2.50;2.50;;;;;;;;2;216067600;216067600;-91
2023/05/18 08:44:18;;;;;;;;;3.50;3.50;;;;;;;;2;261077678;261077678;-91
2023/05/18 08:53:23;;;;;;;;;4.00;4.00;;;;;;;;2;216070548;216070548;-91
2023/05/18 09:01:42;;;;;;;;;6.00;6.00;;;;;;;;2;261079784;261079784;-91
2023/05/18 09:10:14;;;;;;;;;;;;;;;;;;;;;
2023/05/18 09:54:30;;;;;;;;;6.50;6.50;;;;;;;;2;261081935;261081935;-91
2023/05/18 10:03:07;;;;;;;;;;;;;;;;;;;;;
2023/05/18 10:12:08;;;;;;;;;;;;;;;;;;;;;
2023/05/18 11:33:02;;;;;;;;;;;;;;;;;;;;;
2023/05/18 12:08:42;;;;;;;;;6.50;6.50;;;;;;;;2;216066996;216066996;-92
2023/05/18 12:25:57;;;;;;;;;5.50;5.50;;;;;;;;2;216067548;216067548;-92
2023/05/18 12:35:07;;;;;;;;;12.50;12.50;;;;;;;;2;261078826;261078826;-92
2023/05/18 12:52:34;;;;;;;;;;;;;;;;;;;;;
2023/05/18 13:01:15;;;;;;;;;11.00;11.00;;;;;;;;2;216093039;216093039;-92
2023/05/18 13:09:53;;;;;;;;;;;;;;;;;;;;;
2023/05/18 13:18:35;;;;;;;;;;;;;;;;;;;;;
2023/05/18 13:27:48;;;;;;;;;;;;;;;;;;;;;
2023/05/18 14:20:59;;;;;;;;;;;;;;;;;;;;;
2023/05/18 14:29:24;;;;;;;;;10.50;10.50;;;;;;;;2;216063468;216063468;-92
2023/05/18 14:47:08;;;;;;;;;;;;;;;;;;;;;
2023/05/18 14:56:02;;;;;;;;;9.00;9.00;;;;;;;;2;261105174;261105174;-91
2023/05/18 15:13:21;;;;;;;;;6.00;6.00;;;;;;;;2;261079038;261079038;-91
2023/05/18 15:21:39;;;;;;;;;6.50;6.50;;;;;;;;2;216065459;216065459;-92
2023/05/18 15:30:15;;;;;;;;;2.50;2.50;;;;;;;;2;261078074;261078074;-91
2023/05/18 15:38:35;;;;;;;;;3.50;3.50;;;;;;;;2;216066414;216066414;-91
2023/05/18 15:46:53;;;;;;;;;17.50;5.50;;;;;;;;2;261078953;261078953;-92
2023/05/18 15:55:12;;;;;;;;;8.50;8.50;;;;;;;;2;216066891;216066891;-91
2023/05/18 16:03:28;;;;;;;;;6.50;6.50;;;;;;;;2;261081930;261081930;-91
2023/05/18 16:11:44;;;;;;;;;10.00;10.00;;;;;;;;2;216070366;216070366;-91
2023/05/18 16:19:59;;;;;;;;;5.00;5.00;;;;;;;;2;261079085;261079085;-91
2023/05/18 16:28:14;;;;;;;;;11.50;11.50;;;;;;;;2;216064199;216064199;-91
2023/05/18 16:36:30;;;;;;;;;3.00;3.00;;;;;;;;2;261076302;261076302;-91
2023/05/18 16:44:46;;;;;;;;;6.50;6.50;;;;;;;;2;216067173;216067173;-91
2023/05/18 16:53:01;;;;;;;;;7.50;7.50;;;;;;;;2;261085859;261085859;-94
2023/05/18 17:01:17;;;;;;;;;9.00;9.00;;;;;;;;2;216066156;216066156;-94
2023/05/18 17:09:33;;;;;;;;;8.00;6.00;;;;;;;;2;261083872;261083872;-94
2023/05/18 17:17:48;;;;;;;;;7.00;7.00;;;;;;;;2;216068814;216068814;-94
2023/05/18 17:26:04;;;;;;;;;9.00;9.00;;;;;;;;2;261078086;261078086;-93
2023/05/18 17:34:19;;;;;;;;;3.50;3.50;;;;;;;;2;216065561;216065561;-94
2023/05/18 17:42:35;;;;;;;;;9.50;6.50;;;;;;;;2;261079739;261079739;-95
2023/05/18 17:50:51;;;;;;;;;8.50;8.50;;;;;;;;2;216065606;216065606;-94
2023/05/18 17:59:06;;;;;;;;;5.50;5.50;;;;;;;;2;261079272;261079272;-90
2023/05/18 18:07:32;;;;;;;;;7.00;7.00;;;;;;;;2;216067611;216067611;-90
2023/05/18 18:15:47;;;;;;;;;12.50;12.50;;;;;;;;2;261080840;261080840;-89
2023/05/18 18:24:03;;;;;;;;;8.00;8.00;;;;;;;;2;216065148;216065148;-90
2023/05/18 18:32:21;;;;;;;;;7.00;7.00;;;;;;;;2;261082363;261082363;-91
2023/05/18 18:40:36;;;;;;;;;7.00;7.00;;;;;;;;2;216071362;216071362;-90
2023/05/18 18:48:52;;;;;;;;;11.00;11.00;;;;;;;;2;261081029;261081029;-90
2023/05/18 18:57:07;;;;;;;;;9.50;9.50;;;;;;;;2;216068568;216068568;-90
2023/05/18 19:05:23;;;;;;;;;6.00;6.00;;;;;;;;2;261081716;261081716;-89
2023/05/18 19:13:41;;;;;;;;;8.00;8.00;;;;;;;;2;216065897;216065897;-89
2023/05/18 19:21:56;;;;;;;;;4.50;4.50;;;;;;;;2;261080062;261080062;-90
2023/05/18 19:33:36;;;;;;;;;5.00;5.00;;;;;;;;2;216065819;216065819;-91
2023/05/18 19:42:09;;;;;;;;;6.00;6.00;;;;;;;;2;261078849;261078849;-91
2023/05/18 19:50:24;;;;;;;;;5.50;5.50;;;;;;;;2;216064774;216064774;-88
2023/05/18 19:58:40;;;;;;;;;5.00;5.00;;;;;;;;2;261077254;261077254;-89
2023/05/18 20:06:59;;;;;;;;;9.50;9.50;;;;;;;;2;216066175;216066175;-89
2023/05/18 20:15:14;;;;;;;;;3.50;3.50;;;;;;;;2;261076834;261076834;-89
2023/05/18 20:23:33;;;;;;;;;9.50;9.50;;;;;;;;2;216064198;216064198;-89
2023/05/18 20:31:48;;;;;;;;;4.00;4.00;;;;;;;;2;261085082;261085082;-89
2023/05/18 20:40:07;;;;;;;;;11.00;11.00;;;;;;;;2;216064947;216064947;-89
2023/05/18 20:48:25;;;;;;;;;9.00;9.00;;;;;;;;2;261076263;261076263;-89
2023/05/18 20:56:40;;;;;;;;;10.00;10.00;;;;;;;;2;216064643;216064643;-88
2023/05/18 21:04:56;;;;;;;;;11.00;11.00;;;;;;;;2;261080356;261080356;-89
2023/05/18 21:13:11;;;;;;;;;10.50;10.50;;;;;;;;2;216068899;216068899;-88
2023/05/18 21:21:27;;;;;;;;;7.50;7.50;;;;;;;;2;261076951;261076951;-89
2023/05/18 21:29:42;;;;;;;;;8.00;8.00;;;;;;;;2;216063903;216063903;-89
2023/05/18 21:37:59;;;;;;;;;8.00;8.00;;;;;;;;2;261079206;261079206;-89
2023/05/18 21:46:14;;;;;;;;;9.50;9.50;;;;;;;;2;216066739;216066739;-89
2023/05/18 21:54:32;;;;;;;;;10.50;10.50;;;;;;;;2;261076231;261076231;-89
2023/05/18 22:02:47;;;;;;;;;10.00;10.00;;;;;;;;2;216064300;216064300;-89
2023/05/18 22:11:03;;;;;;;;;11.50;11.50;;;;;;;;2;261075989;261075989;-89
2023/05/18 22:19:18;;;;;;;;;14.00;14.00;;;;;;;;2;216066736;216066736;-89
2023/05/18 22:27:37;;;;;;;;;13.00;13.00;;;;;;;;2;261082204;261082204;-89
2023/05/18 22:35:52;;;;;;;;;11.00;11.00;;;;;;;;2;216068132;216068132;-89
2023/05/18 22:44:08;;;;;;;;;8.50;8.50;;;;;;;;2;261079655;261079655;-89
2023/05/18 22:52:23;;;;;;;;;10.00;10.00;;;;;;;;2;216065794;216065794;-89
2023/05/18 23:00:39;;;;;;;;;7.00;7.00;;;;;;;;2;261078225;261078225;-89
2023/05/18 23:08:54;;;;;;;;;10.00;10.00;;;;;;;;2;216066841;216066841;-89
2023/05/18 23:17:10;;;;;;;;;13.50;13.50;;;;;;;;2;261079218;261079218;-89
2023/05/18 23:25:26;;;;;;;;;6.50;6.50;;;;;;;;2;216067351;216067351;-89
2023/05/18 23:33:42;;;;;;;;;9.50;9.50;;;;;;;;2;261076327;261076327;-89
2023/05/18 23:41:58;;;;;;;;;8.50;8.50;;;;;;;;2;216065923;216065923;-89
2023/05/18 23:50:14;;;;;;;;;10.00;10.00;;;;;;;;2;261074886;261074886;-89
2023/05/18 23:58:30;;;;;;;;;5.50;5.50;;;;;;;;2;216065456;216065456;-89
